PWSweather.com
Personal Weather Stations
Station Observations
KCAFRAZI5
West End Drive Area, Frazier Park, CA 93225

West End Drive AreaFrazier Park, CA 93225

Lat: 34.82109, Lon: -118.96053

Elevation: 4940

Station Type: Davis Vantage Pro 2

http://www.fpweather.com

High Low Average
Temperature 60.6°F15.9°C 31.8°F-0.1°C 44.2°F6.8°C
Dew Point 37.3°F2.9°C 21.6°F-5.8°C 27.6°F-2.4°C
Winds 15.0 mph 24.1 kmh Calm Calm 6.0 mph S9.7 kmh S
Wind Gusts 18.0 mph29.0 kmh 2.0 mph3.2 kmh 10.0 mph16.1 kmh
Humidity 73% 25% 54%
Pressure 30.16 in1021.3 mb 29.78 in1008.5 mb -
Precipitation 0.00 in0.0 mm - -
Hour Temp Dew Point Humidity Winds Wind Gusts Pressure Precip Precip Rate Daily Precip Total
12:00 AM 32.5°F0.3°C 23.5°F-4.7°C 69% 8.0 mph S12.9 kmh S 13.0 mph20.9 kmh 30.15 in1021.0 mb 0.00 in0.0 mm 0.00 in0.0 mm 0.00 in0.0 mm
12:15 AM 33.6°F0.9°C 24.5°F-4.2°C 69% 14.0 mph SSE22.5 kmh SSE 16.0 mph25.7 kmh 30.14 in1020.7 mb 0.00 in0.0 mm 0.00 in0.0 mm 0.00 in0.0 mm
12:30 AM 32.5°F0.3°C 24.2°F-4.3°C 71% 12.0 mph S19.3 kmh S 13.0 mph20.9 kmh 30.13 in1020.3 mb 0.00 in0.0 mm 0.00 in0.0 mm 0.00 in0.0 mm
12:45 AM 32.5°F0.3°C 23.8°F-4.6°C 70% 9.0 mph S14.5 kmh S 14.0 mph22.5 kmh 30.14 in1020.7 mb 0.00 in0.0 mm 0.00 in0.0 mm 0.00 in0.0 mm
01:00 AM 32.8°F0.4°C 24.1°F-4.4°C 70% 9.0 mph S14.5 kmh S 14.0 mph22.5 kmh 30.13 in1020.3 mb 0.00 in0.0 mm 0.00 in0.0 mm 0.00 in0.0 mm
01:15 AM 32.7°F0.4°C 24.4°F-4.2°C 71% 11.0 mph S17.7 kmh S 14.0 mph22.5 kmh 30.13 in1020.3 mb 0.00 in0.0 mm 0.00 in0.0 mm 0.00 in0.0 mm
01:30 AM 32.7°F0.4°C 24.0°F-4.4°C 70% 5.0 mph S8.0 kmh S 12.0 mph19.3 kmh 30.12 in1020.0 mb 0.00 in0.0 mm 0.00 in0.0 mm 0.00 in0.0 mm
01:45 AM 32.5°F0.3°C 24.5°F-4.2°C 72% 10.0 mph S16.1 kmh S 10.0 mph16.1 kmh 30.11 in1019.6 mb 0.00 in0.0 mm 0.00 in0.0 mm 0.00 in0.0 mm
02:00 AM 33.0°F0.6°C 24.0°F-4.4°C 69% 7.0 mph S11.3 kmh S 11.0 mph17.7 kmh 30.11 in1019.6 mb 0.00 in0.0 mm 0.00 in0.0 mm 0.00 in0.0 mm
02:15 AM 32.8°F0.4°C 23.8°F-4.6°C 69% 11.0 mph S17.7 kmh S 13.0 mph20.9 kmh 30.10 in1019.3 mb 0.00 in0.0 mm 0.00 in0.0 mm 0.00 in0.0 mm
02:30 AM 33.0°F0.6°C 24.0°F-4.4°C 69% 9.0 mph SSE14.5 kmh SSE 13.0 mph20.9 kmh 30.09 in1019.0 mb 0.00 in0.0 mm 0.00 in0.0 mm 0.00 in0.0 mm
02:45 AM 32.0°F0.0°C 24.3°F-4.3°C 73% 5.0 mph S8.0 kmh S 10.0 mph16.1 kmh 30.09 in1019.0 mb 0.00 in0.0 mm 0.00 in0.0 mm 0.00 in0.0 mm
03:00 AM 32.3°F0.2°C 24.0°F-4.4°C 71% 7.0 mph S11.3 kmh S 12.0 mph19.3 kmh 30.10 in1019.3 mb 0.00 in0.0 mm 0.00 in0.0 mm 0.00 in0.0 mm
03:15 AM 32.1°F0.1°C 23.8°F-4.6°C 71% 7.0 mph S11.3 kmh S 10.0 mph16.1 kmh 30.09 in1019.0 mb 0.00 in0.0 mm 0.00 in0.0 mm 0.00 in0.0 mm
03:30 AM 31.8°F-0.1°C 23.5°F-4.7°C 71% 7.0 mph S11.3 kmh S 11.0 mph17.7 kmh 30.10 in1019.3 mb 0.00 in0.0 mm 0.00 in0.0 mm 0.00 in0.0 mm
03:45 AM 32.3°F0.2°C 23.3°F-4.8°C 69% 8.0 mph S12.9 kmh S 10.0 mph16.1 kmh 30.10 in1019.3 mb 0.00 in0.0 mm 0.00 in0.0 mm 0.00 in0.0 mm
04:00 AM 33.0°F0.6°C 22.5°F-5.3°C 65% 6.0 mph S9.7 kmh S 12.0 mph19.3 kmh 30.10 in1019.3 mb 0.00 in0.0 mm 0.00 in0.0 mm 0.00 in0.0 mm
04:15 AM 32.7°F0.4°C 23.0°F-5.0°C 67% 10.0 mph SE16.1 kmh SE 12.0 mph19.3 kmh 30.08 in1018.6 mb 0.00 in0.0 mm 0.00 in0.0 mm 0.00 in0.0 mm
04:30 AM 32.5°F0.3°C 22.8°F-5.1°C 67% 8.0 mph S12.9 kmh S 13.0 mph20.9 kmh 30.09 in1019.0 mb 0.00 in0.0 mm 0.00 in0.0 mm 0.00 in0.0 mm
04:45 AM 33.7°F0.9°C 22.5°F-5.3°C 63% 9.0 mph S14.5 kmh S 15.0 mph24.1 kmh 30.09 in1019.0 mb 0.00 in0.0 mm 0.00 in0.0 mm 0.00 in0.0 mm
05:00 AM 33.6°F0.9°C 21.6°F-5.8°C 61% 15.0 mph SE24.1 kmh SE 15.0 mph24.1 kmh 30.08 in1018.6 mb 0.00 in0.0 mm 0.00 in0.0 mm 0.00 in0.0 mm
05:15 AM 33.7°F0.9°C 22.1°F-5.5°C 62% 11.0 mph S17.7 kmh S 13.0 mph20.9 kmh 30.06 in1017.9 mb 0.00 in0.0 mm 0.00 in0.0 mm 0.00 in0.0 mm
05:30 AM 33.9°F1.1°C 22.3°F-5.4°C 62% 6.0 mph S9.7 kmh S 11.0 mph17.7 kmh 30.08 in1018.6 mb 0.00 in0.0 mm 0.00 in0.0 mm 0.00 in0.0 mm
05:45 AM 34.5°F1.4°C 22.1°F-5.5°C 60% 13.0 mph S20.9 kmh S 13.0 mph20.9 kmh 30.09 in1019.0 mb 0.00 in0.0 mm 0.00 in0.0 mm 0.00 in0.0 mm
06:00 AM 33.7°F0.9°C 22.5°F-5.3°C 63% 6.0 mph S9.7 kmh S 12.0 mph19.3 kmh 30.09 in1019.0 mb 0.00 in0.0 mm 0.00 in0.0 mm 0.00 in0.0 mm
06:15 AM 34.6°F1.4°C 22.2°F-5.4°C 60% 10.0 mph S16.1 kmh S 15.0 mph24.1 kmh 30.10 in1019.3 mb 0.00 in0.0 mm 0.00 in0.0 mm 0.00 in0.0 mm
06:30 AM 34.2°F1.2°C 21.8°F-5.7°C 60% 10.0 mph S16.1 kmh S 16.0 mph25.7 kmh 30.13 in1020.3 mb 0.00 in0.0 mm 0.00 in0.0 mm 0.00 in0.0 mm
06:45 AM 34.2°F1.2°C 22.6°F-5.2°C 62% 6.0 mph S9.7 kmh S 11.0 mph17.7 kmh 30.13 in1020.3 mb 0.00 in0.0 mm 0.00 in0.0 mm 0.00 in0.0 mm
07:00 AM 33.1°F0.6°C 22.3°F-5.4°C 64% 11.0 mph S17.7 kmh S 12.0 mph19.3 kmh 30.13 in1020.3 mb 0.00 in0.0 mm 0.00 in0.0 mm 0.00 in0.0 mm
07:15 AM 34.0°F1.1°C 22.4°F-5.3°C 62% 5.0 mph S8.0 kmh S 11.0 mph17.7 kmh 30.14 in1020.7 mb 0.00 in0.0 mm 0.00 in0.0 mm 0.00 in0.0 mm
07:30 AM 34.2°F1.2°C 22.6°F-5.2°C 62% 10.0 mph SSE16.1 kmh SSE 12.0 mph19.3 kmh 30.16 in1021.3 mb 0.00 in0.0 mm 0.00 in0.0 mm 0.00 in0.0 mm
07:45 AM 36.1°F2.3°C 22.8°F-5.1°C 58% 7.0 mph S11.3 kmh S 13.0 mph20.9 kmh 30.16 in1021.3 mb 0.00 in0.0 mm 0.00 in0.0 mm 0.00 in0.0 mm
08:00 AM 36.8°F2.7°C 24.2°F-4.3°C 60% 9.0 mph S14.5 kmh S 11.0 mph17.7 kmh 30.16 in1021.3 mb 0.00 in0.0 mm 0.00 in0.0 mm 0.00 in0.0 mm
08:15 AM 41.1°F5.1°C 25.7°F-3.5°C 54% 3.0 mph S4.8 kmh S 10.0 mph16.1 kmh 30.14 in1020.7 mb 0.00 in0.0 mm 0.00 in0.0 mm 0.00 in0.0 mm
08:30 AM 48.1°F8.9°C 27.8°F-2.3°C 45% 3.0 mph SE4.8 kmh SE 6.0 mph9.7 kmh 30.14 in1020.7 mb 0.00 in0.0 mm 0.00 in0.0 mm 0.00 in0.0 mm
08:45 AM 51.9°F11.1°C 29.0°F-1.7°C 41% 3.0 mph SE4.8 kmh SE 10.0 mph16.1 kmh 30.10 in1019.3 mb 0.00 in0.0 mm 0.00 in0.0 mm 0.00 in0.0 mm
09:00 AM 52.9°F11.6°C 26.7°F-2.9°C 36% 5.0 mph E8.0 kmh E 10.0 mph16.1 kmh 30.08 in1018.6 mb 0.00 in0.0 mm 0.00 in0.0 mm 0.00 in0.0 mm
09:15 AM 53.1°F11.7°C 27.5°F-2.5°C 37% 2.0 mph SE3.2 kmh SE 7.0 mph11.3 kmh 30.07 in1018.3 mb 0.00 in0.0 mm 0.00 in0.0 mm 0.00 in0.0 mm
09:30 AM 53.5°F11.9°C 26.5°F-3.1°C 35% Calm Calm 9.0 mph14.5 kmh 30.07 in1018.3 mb 0.00 in0.0 mm 0.00 in0.0 mm 0.00 in0.0 mm
09:45 AM 54.4°F12.4°C 27.3°F-2.6°C 35% 2.0 mph SE3.2 kmh SE 10.0 mph16.1 kmh 30.06 in1017.9 mb 0.00 in0.0 mm 0.00 in0.0 mm 0.00 in0.0 mm
10:00 AM 55.0°F12.8°C 27.9°F-2.3°C 35% 2.0 mph SE3.2 kmh SE 10.0 mph16.1 kmh 30.07 in1018.3 mb 0.00 in0.0 mm 0.00 in0.0 mm 0.00 in0.0 mm
10:15 AM 55.3°F12.9°C 29.5°F-1.4°C 37% 2.0 mph S3.2 kmh S 16.0 mph25.7 kmh 30.06 in1017.9 mb 0.00 in0.0 mm 0.00 in0.0 mm 0.00 in0.0 mm
10:30 AM 55.5°F13.1°C 30.3°F-0.9°C 38% 4.0 mph SE6.4 kmh SE 18.0 mph29.0 kmh 30.05 in1017.6 mb 0.00 in0.0 mm 0.00 in0.0 mm 0.00 in0.0 mm
10:45 AM 56.1°F13.4°C 31.5°F-0.3°C 39% 11.0 mph SSE17.7 kmh SSE 11.0 mph17.7 kmh 30.05 in1017.6 mb 0.00 in0.0 mm 0.00 in0.0 mm 0.00 in0.0 mm
11:00 AM 55.9°F13.3°C 31.3°F-0.4°C 39% 12.0 mph SSE19.3 kmh SSE 14.0 mph22.5 kmh 30.05 in1017.6 mb 0.00 in0.0 mm 0.00 in0.0 mm 0.00 in0.0 mm
11:15 AM 55.9°F13.3°C 31.3°F-0.4°C 39% 7.0 mph S11.3 kmh S 11.0 mph17.7 kmh 30.05 in1017.6 mb 0.00 in0.0 mm 0.00 in0.0 mm 0.00 in0.0 mm
11:30 AM 57.2°F14.0°C 29.1°F-1.6°C 34% 1.0 mph E1.6 kmh E 10.0 mph16.1 kmh 30.02 in1016.6 mb 0.00 in0.0 mm 0.00 in0.0 mm 0.00 in0.0 mm
11:45 AM 58.2°F14.6°C 28.5°F-1.9°C 32% 9.0 mph SE14.5 kmh SE 10.0 mph16.1 kmh 29.99 in1015.6 mb 0.00 in0.0 mm 0.00 in0.0 mm 0.00 in0.0 mm
12:00 PM 58.9°F14.9°C 25.9°F-3.4°C 28% 4.0 mph S6.4 kmh S 10.0 mph16.1 kmh 29.99 in1015.6 mb 0.00 in0.0 mm 0.00 in0.0 mm 0.00 in0.0 mm
12:15 PM 60.6°F15.9°C 24.6°F-4.1°C 25% 5.0 mph S8.0 kmh S 8.0 mph12.9 kmh 29.96 in1014.6 mb 0.00 in0.0 mm 0.00 in0.0 mm 0.00 in0.0 mm
12:30 PM 60.0°F15.6°C 35.0°F1.7°C 39% 1.0 mph S1.6 kmh S 10.0 mph16.1 kmh 29.95 in1014.2 mb 0.00 in0.0 mm 0.00 in0.0 mm 0.00 in0.0 mm
12:45 PM 57.4°F14.1°C 32.7°F0.4°C 39% Calm Calm 10.0 mph16.1 kmh 29.95 in1014.2 mb 0.00 in0.0 mm 0.00 in0.0 mm 0.00 in0.0 mm
01:00 PM 56.6°F13.7°C 36.1°F2.3°C 46% 1.0 mph SW1.6 kmh SW 10.0 mph16.1 kmh 29.96 in1014.6 mb 0.00 in0.0 mm 0.00 in0.0 mm 0.00 in0.0 mm
01:15 PM 53.8°F12.1°C 35.6°F2.0°C 50% 12.0 mph S19.3 kmh S 13.0 mph20.9 kmh 29.95 in1014.2 mb 0.00 in0.0 mm 0.00 in0.0 mm 0.00 in0.0 mm
01:30 PM 54.9°F12.7°C 32.8°F0.4°C 43% 3.0 mph S4.8 kmh S 11.0 mph17.7 kmh 29.97 in1014.9 mb 0.00 in0.0 mm 0.00 in0.0 mm 0.00 in0.0 mm
01:45 PM 55.9°F13.3°C 24.1°F-4.4°C 29% 7.0 mph S11.3 kmh S 13.0 mph20.9 kmh 29.95 in1014.2 mb 0.00 in0.0 mm 0.00 in0.0 mm 0.00 in0.0 mm
02:00 PM 55.2°F12.9°C 25.9°F-3.4°C 32% 13.0 mph S20.9 kmh S 18.0 mph29.0 kmh 29.94 in1013.9 mb 0.00 in0.0 mm 0.00 in0.0 mm 0.00 in0.0 mm
02:15 PM 55.2°F12.9°C 27.3°F-2.6°C 34% 9.0 mph SSW14.5 kmh SSW 15.0 mph24.1 kmh 29.94 in1013.9 mb 0.00 in0.0 mm 0.00 in0.0 mm 0.00 in0.0 mm
02:30 PM 54.7°F12.6°C 26.2°F-3.2°C 33% 12.0 mph SSE19.3 kmh SSE 15.0 mph24.1 kmh 29.95 in1014.2 mb 0.00 in0.0 mm 0.00 in0.0 mm 0.00 in0.0 mm
02:45 PM 54.9°F12.7°C 27.1°F-2.7°C 34% 8.0 mph SSE12.9 kmh SSE 14.0 mph22.5 kmh 29.94 in1013.9 mb 0.00 in0.0 mm 0.00 in0.0 mm 0.00 in0.0 mm
03:00 PM 55.2°F12.9°C 26.6°F-3.0°C 33% 3.0 mph SE4.8 kmh SE 12.0 mph19.3 kmh 29.93 in1013.5 mb 0.00 in0.0 mm 0.00 in0.0 mm 0.00 in0.0 mm
03:15 PM 55.0°F12.8°C 26.5°F-3.1°C 33% Calm Calm 6.0 mph9.7 kmh 29.93 in1013.5 mb 0.00 in0.0 mm 0.00 in0.0 mm 0.00 in0.0 mm
03:30 PM 54.7°F12.6°C 27.6°F-2.4°C 35% 1.0 mph NE1.6 kmh NE 6.0 mph9.7 kmh 29.91 in1012.9 mb 0.00 in0.0 mm 0.00 in0.0 mm 0.00 in0.0 mm
03:45 PM 54.3°F12.4°C 27.3°F-2.6°C 35% Calm Calm 5.0 mph8.0 kmh 29.90 in1012.5 mb 0.00 in0.0 mm 0.00 in0.0 mm 0.00 in0.0 mm
04:00 PM 51.6°F10.9°C 37.3°F2.9°C 58% 2.0 mph NNE3.2 kmh NNE 4.0 mph6.4 kmh 29.91 in1012.9 mb 0.00 in0.0 mm 0.00 in0.0 mm 0.00 in0.0 mm
04:15 PM 50.4°F10.2°C 30.4°F-0.9°C 46% 4.0 mph SE6.4 kmh SE 7.0 mph11.3 kmh 29.92 in1013.2 mb 0.00 in0.0 mm 0.00 in0.0 mm 0.00 in0.0 mm
04:30 PM 52.7°F11.5°C 25.8°F-3.4°C 35% Calm Calm 3.0 mph4.8 kmh 29.92 in1013.2 mb 0.00 in0.0 mm 0.00 in0.0 mm 0.00 in0.0 mm
04:45 PM 47.5°F8.6°C 36.7°F2.6°C 66% 4.0 mph NNW6.4 kmh NNW 7.0 mph11.3 kmh 29.90 in1012.5 mb 0.00 in0.0 mm 0.00 in0.0 mm 0.00 in0.0 mm
05:00 PM 46.3°F7.9°C 36.7°F2.6°C 69% 2.0 mph NNW3.2 kmh NNW 6.0 mph9.7 kmh 29.92 in1013.2 mb 0.00 in0.0 mm 0.00 in0.0 mm 0.00 in0.0 mm
05:15 PM 45.7°F7.6°C 36.5°F2.5°C 70% Calm Calm 3.0 mph4.8 kmh 29.93 in1013.5 mb 0.00 in0.0 mm 0.00 in0.0 mm 0.00 in0.0 mm
05:30 PM 45.7°F7.6°C 35.8°F2.1°C 68% 10.0 mph S16.1 kmh S 11.0 mph17.7 kmh 29.92 in1013.2 mb 0.00 in0.0 mm 0.00 in0.0 mm 0.00 in0.0 mm
05:45 PM 48.4°F9.1°C 25.2°F-3.8°C 40% 4.0 mph SSE6.4 kmh SSE 9.0 mph14.5 kmh 29.92 in1013.2 mb 0.00 in0.0 mm 0.00 in0.0 mm 0.00 in0.0 mm
06:00 PM 48.7°F9.3°C 28.3°F-2.1°C 45% 6.0 mph ESE9.7 kmh ESE 11.0 mph17.7 kmh 29.91 in1012.9 mb 0.00 in0.0 mm 0.00 in0.0 mm 0.00 in0.0 mm
06:15 PM 48.4°F9.1°C 30.1°F-1.1°C 49% 2.0 mph SE3.2 kmh SE 16.0 mph25.7 kmh 29.91 in1012.9 mb 0.00 in0.0 mm 0.00 in0.0 mm 0.00 in0.0 mm
06:30 PM 47.9°F8.8°C 30.2°F-1.0°C 50% 3.0 mph SE4.8 kmh SE 12.0 mph19.3 kmh 29.91 in1012.9 mb 0.00 in0.0 mm 0.00 in0.0 mm 0.00 in0.0 mm
06:45 PM 47.5°F8.6°C 29.8°F-1.2°C 50% 4.0 mph SSE6.4 kmh SSE 10.0 mph16.1 kmh 29.92 in1013.2 mb 0.00 in0.0 mm 0.00 in0.0 mm 0.00 in0.0 mm
07:00 PM 46.7°F8.2°C 30.5°F-0.8°C 53% Calm Calm 6.0 mph9.7 kmh 29.93 in1013.5 mb 0.00 in0.0 mm 0.00 in0.0 mm 0.00 in0.0 mm
07:15 PM 45.7°F7.6°C 30.5°F-0.8°C 55% 3.0 mph S4.8 kmh S 5.0 mph8.0 kmh 29.93 in1013.5 mb 0.00 in0.0 mm 0.00 in0.0 mm 0.00 in0.0 mm
07:30 PM 45.3°F7.4°C 30.5°F-0.8°C 56% 2.0 mph S3.2 kmh S 5.0 mph8.0 kmh 29.92 in1013.2 mb 0.00 in0.0 mm 0.00 in0.0 mm 0.00 in0.0 mm
07:45 PM 44.5°F6.9°C 31.5°F-0.3°C 60% 2.0 mph SSE3.2 kmh SSE 3.0 mph4.8 kmh 29.92 in1013.2 mb 0.00 in0.0 mm 0.00 in0.0 mm 0.00 in0.0 mm
08:00 PM 43.8°F6.6°C 32.0°F0.0°C 63% Calm Calm 2.0 mph3.2 kmh 29.92 in1013.2 mb 0.00 in0.0 mm 0.00 in0.0 mm 0.00 in0.0 mm
08:15 PM 43.4°F6.3°C 31.7°F-0.2°C 63% 2.0 mph SSE3.2 kmh SSE 6.0 mph9.7 kmh 29.92 in1013.2 mb 0.00 in0.0 mm 0.00 in0.0 mm 0.00 in0.0 mm
08:30 PM 44.1°F6.7°C 31.9°F-0.1°C 62% 3.0 mph SSE4.8 kmh SSE 13.0 mph20.9 kmh 29.83 in1010.2 mb 0.00 in0.0 mm 0.00 in0.0 mm 0.00 in0.0 mm
08:45 PM 43.5°F6.4°C 32.2°F0.1°C 64% 6.0 mph SSE9.7 kmh SSE 9.0 mph14.5 kmh 29.82 in1009.8 mb 0.00 in0.0 mm 0.00 in0.0 mm 0.00 in0.0 mm
09:00 PM 42.9°F6.1°C 32.3°F0.2°C 66% 5.0 mph S8.0 kmh S 6.0 mph9.7 kmh 29.81 in1009.5 mb 0.00 in0.0 mm 0.00 in0.0 mm 0.00 in0.0 mm
09:15 PM 42.7°F5.9°C 32.5°F0.3°C 67% 5.0 mph S8.0 kmh S 9.0 mph14.5 kmh 29.81 in1009.5 mb 0.00 in0.0 mm 0.00 in0.0 mm 0.00 in0.0 mm
09:30 PM 42.5°F5.8°C 31.6°F-0.2°C 65% 5.0 mph S8.0 kmh S 6.0 mph9.7 kmh 29.80 in1009.1 mb 0.00 in0.0 mm 0.00 in0.0 mm 0.00 in0.0 mm
09:45 PM 42.7°F5.9°C 31.4°F-0.3°C 64% 3.0 mph S4.8 kmh S 6.0 mph9.7 kmh 29.80 in1009.1 mb 0.00 in0.0 mm 0.00 in0.0 mm 0.00 in0.0 mm
10:00 PM 42.1°F5.6°C 30.8°F-0.7°C 64% 4.0 mph S6.4 kmh S 5.0 mph8.0 kmh 29.80 in1009.1 mb 0.00 in0.0 mm 0.00 in0.0 mm 0.00 in0.0 mm
10:15 PM 42.4°F5.8°C 31.1°F-0.5°C 64% 2.0 mph S3.2 kmh S 9.0 mph14.5 kmh 29.80 in1009.1 mb 0.00 in0.0 mm 0.00 in0.0 mm 0.00 in0.0 mm
10:30 PM 42.2°F5.7°C 30.1°F-1.1°C 62% 5.0 mph S8.0 kmh S 7.0 mph11.3 kmh 29.79 in1008.8 mb 0.00 in0.0 mm 0.00 in0.0 mm 0.00 in0.0 mm
11:00 PM 41.7°F5.4°C 29.3°F-1.5°C 61% 4.0 mph S6.4 kmh S 9.0 mph14.5 kmh 29.80 in1009.1 mb 0.00 in0.0 mm 0.00 in0.0 mm 0.00 in0.0 mm
11:15 PM 41.4°F5.2°C 28.2°F-2.1°C 59% 5.0 mph SSE8.0 kmh SSE 7.0 mph11.3 kmh 29.80 in1009.1 mb 0.00 in0.0 mm 0.00 in0.0 mm 0.00 in0.0 mm
11:30 PM 41.4°F5.2°C 28.6°F-1.9°C 60% 1.0 mph SE1.6 kmh SE 9.0 mph14.5 kmh 29.78 in1008.5 mb 0.00 in0.0 mm 0.00 in0.0 mm 0.00 in0.0 mm
11:45 PM 40.7°F4.8°C 29.9°F-1.2°C 65% Calm Calm 3.0 mph4.8 kmh 29.78 in1008.5 mb 0.00 in0.0 mm 0.00 in0.0 mm 0.00 in0.0 mm